Time;durP1;ratioP1;P1;durP2;ratioP2;P2;SDS_P1;SDS_P2;PMS_P1;PMS_P2;Temp;Humidity;BMP_temperature;BMP_pressure;BME280_temperature;BME280_humidity;BME280_pressure;Samples;Min_cycle;Max_cycle;Signal;HPM_P1;HPM_P2
2022/09/01 00:01:51;;;;;;;1999.90;999.90;;;11.90;99.90;;;;;;5033627;28;20483;-67
2022/09/01 00:04:19;;;;;;;1999.90;999.90;;;11.80;99.90;;;;;;5030312;28;20463;-66
2022/09/01 00:06:47;;;;;;;1999.90;999.90;;;11.90;99.90;;;;;;5032782;28;20517;-68
2022/09/01 00:09:16;;;;;;;1999.90;999.90;;;11.80;99.90;;;;;;5039325;28;20459;-66
2022/09/01 00:11:45;;;;;;;1999.90;999.90;;;11.90;99.90;;;;;;5035867;28;20499;-68
2022/09/01 00:14:13;;;;;;;1999.90;999.90;;;12.00;99.90;;;;;;5038181;28;20971;-68
2022/09/01 00:16:40;;;;;;;1999.90;999.90;;;11.90;99.90;;;;;;5032963;28;20967;-68
2022/09/01 00:19:08;;;;;;;1999.90;999.90;;;12.10;99.90;;;;;;5030697;28;20551;-68
2022/09/01 00:21:38;;;;;;;1999.90;999.90;;;12.10;99.90;;;;;;5037677;28;20534;-68
2022/09/01 00:24:06;;;;;;;1999.90;999.90;;;12.20;99.90;;;;;;5036416;28;20504;-68
2022/09/01 00:26:32;;;;;;;1999.90;999.90;;;12.10;99.90;;;;;;5037159;28;20849;-69
2022/09/01 00:28:59;;;;;;;1999.90;999.90;;;12.20;99.90;;;;;;5036923;28;20489;-68
2022/09/01 00:31:26;;;;;;;1999.90;999.90;;;12.20;99.90;;;;;;5030276;28;20479;-68
2022/09/01 00:33:53;;;;;;;1999.90;999.90;;;12.20;99.90;;;;;;5030244;28;20909;-68
2022/09/01 00:36:22;;;;;;;1999.90;999.90;;;12.20;99.90;;;;;;5033769;28;20516;-68
2022/09/01 00:38:50;;;;;;;1999.90;999.90;;;12.20;99.90;;;;;;5034465;28;20523;-68
2022/09/01 00:41:18;;;;;;;1999.90;999.90;;;12.00;99.90;;;;;;5031036;28;20490;-68
2022/09/01 00:43:47;;;;;;;1999.90;999.90;;;11.80;99.90;;;;;;5029354;28;20460;-69
2022/09/01 00:46:17;;;;;;;1999.90;999.90;;;11.60;99.90;;;;;;5028740;28;20467;-68
2022/09/01 00:48:44;;;;;;;1999.90;999.90;;;11.50;99.90;;;;;;5035108;28;20466;-68
2022/09/01 00:51:12;;;;;;;1999.90;999.90;;;11.50;99.90;;;;;;5038632;28;20533;-68
2022/09/01 00:53:44;;;;;;;1999.90;999.90;;;11.30;99.90;;;;;;5036645;28;20466;-68
2022/09/01 00:56:11;;;;;;;1999.90;999.90;;;11.30;99.90;;;;;;5033403;28;20823;-68
2022/09/01 00:58:39;;;;;;;1999.90;999.90;;;11.30;99.90;;;;;;5033134;28;20459;-69
2022/09/01 01:01:06;;;;;;;1999.90;999.90;;;11.20;99.90;;;;;;5030470;28;20544;-68
2022/09/01 01:03:34;;;;;;;1999.90;999.90;;;11.10;99.90;;;;;;5037892;28;20521;-68
2022/09/01 01:06:07;;;;;;;1999.90;999.90;;;11.10;99.90;;;;;;5035984;28;20959;-68
2022/09/01 01:08:36;;;;;;;1999.90;999.90;;;11.20;99.90;;;;;;5038652;28;20465;-68
2022/09/01 01:11:07;;;;;;;1999.90;999.90;;;11.30;99.90;;;;;;5037220;28;20494;-68
2022/09/01 01:13:48;;;;;;;1999.90;999.90;;;11.40;99.90;;;;;;5030249;28;20883;-68
2022/09/01 01:16:14;;;;;;;1999.90;999.90;;;11.50;99.90;;;;;;5029500;28;20455;-68
2022/09/01 01:18:41;;;;;;;1999.90;999.90;;;11.50;99.90;;;;;;5035216;28;21016;-67
2022/09/01 01:24:06;;;;;;;1999.90;999.90;;;11.60;99.90;;;;;;5036685;28;20817;-68
2022/09/01 01:26:34;;;;;;;1999.90;999.90;;;11.60;99.90;;;;;;5034684;28;20466;-68
2022/09/01 01:29:02;;;;;;;1999.90;999.90;;;11.60;99.90;;;;;;5027975;28;20517;-69
2022/09/01 01:31:31;;;;;;;1999.90;999.90;;;11.50;99.90;;;;;;5029184;28;20585;-66
2022/09/01 01:33:58;;;;;;;1999.90;999.90;;;11.40;99.90;;;;;;5036314;28;20529;-68
2022/09/01 01:36:30;;;;;;;1999.90;999.90;;;11.30;99.90;;;;;;5037681;28;20542;-68
2022/09/01 01:39:00;;;;;;;1999.90;999.90;;;11.20;99.90;;;;;;5035605;28;20949;-69
2022/09/01 01:41:28;;;;;;;1999.90;999.90;;;11.10;99.90;;;;;;5024464;28;20494;-68
2022/09/01 01:43:57;;;;;;;1999.90;999.90;;;11.50;99.90;;;;;;5032146;28;20463;-68
2022/09/01 01:46:24;;;;;;;1999.90;999.90;;;11.00;99.90;;;;;;5040338;28;20516;-68
2022/09/01 01:48:52;;;;;;;1999.90;999.90;;;11.10;99.90;;;;;;5031667;28;21040;-68
2022/09/01 01:51:23;;;;;;;1999.90;999.90;;;11.00;99.90;;;;;;5038876;28;20994;-70
2022/09/01 01:53:51;;;;;;;1999.90;999.90;;;11.20;99.90;;;;;;5027698;28;20459;-70
2022/09/01 01:56:18;;;;;;;1999.90;999.90;;;11.00;99.90;;;;;;5031944;28;20459;-70
2022/09/01 01:58:45;;;;;;;1999.90;999.90;;;11.00;99.90;;;;;;5032950;28;20520;-71
2022/09/01 02:01:13;;;;;;;1999.90;999.90;;;11.00;99.90;;;;;;5039225;28;20540;-70
2022/09/01 02:03:40;;;;;;;1999.90;999.90;;;10.90;99.90;;;;;;5037004;28;20520;-70
2022/09/01 02:06:10;;;;;;;1999.90;999.90;;;10.90;99.90;;;;;;5037323;28;20467;-70
2022/09/01 02:08:39;;;;;;;1999.90;999.90;;;11.00;99.90;;;;;;5028014;28;20487;-70
2022/09/01 02:11:07;;;;;;;1999.90;999.90;;;10.90;99.90;;;;;;5032559;28;20490;-71
2022/09/01 02:13:34;;;;;;;1999.90;999.90;;;10.80;99.90;;;;;;5027969;28;20459;-70
2022/09/01 02:16:02;;;;;;;1999.90;999.90;;;10.70;99.90;;;;;;5032561;28;20513;-70
2022/09/01 02:18:36;;;;;;;1999.90;999.90;;;10.70;99.90;;;;;;5036090;28;20572;-70
2022/09/01 02:21:08;;;;;;;1999.90;999.90;;;10.70;99.90;;;;;;5034659;28;20495;-69
2022/09/01 02:23:35;;;;;;;1999.90;999.90;;;10.70;99.90;;;;;;5028078;28;20490;-70
2022/09/01 02:26:05;;;;;;;1999.90;999.90;;;10.90;99.90;;;;;;5037381;28;20896;-70
2022/09/01 02:28:33;;;;;;;1999.90;999.90;;;11.00;99.90;;;;;;5033952;28;20989;-69
2022/09/01 02:31:01;;;;;;;1999.90;999.90;;;11.00;99.90;;;;;;5034966;28;20521;-70
2022/09/01 02:33:27;;;;;;;1999.90;999.90;;;11.00;99.90;;;;;;5037327;28;20466;-70
2022/09/01 02:35:57;;;;;;;1999.90;999.90;;;11.00;99.90;;;;;;5028908;28;21056;-69
2022/09/01 02:38:28;;;;;;;1999.90;999.90;;;11.00;99.90;;;;;;5030112;28;20590;-70
2022/09/01 02:40:57;;;;;;;1999.90;999.90;;;10.90;99.90;;;;;;5029891;28;20501;-70
2022/09/01 02:43:27;;;;;;;1999.90;999.90;;;10.80;99.90;;;;;;5037310;28;20466;-70
2022/09/01 02:45:58;;;;;;;1999.90;999.90;;;10.70;99.90;;;;;;5036550;28;20467;-70
2022/09/01 02:48:27;;;;;;;1999.90;999.90;;;10.70;99.90;;;;;;5028386;28;20528;-69
2022/09/01 02:50:58;;;;;;;1999.90;999.90;;;10.80;99.90;;;;;;5028655;28;21010;-70
2022/09/01 02:53:25;;;;;;;1999.90;999.90;;;10.80;99.90;;;;;;5032560;28;20469;-69
2022/09/01 02:55:52;;;;;;;1999.90;999.90;;;10.80;99.90;;;;;;5033595;28;22226;-70
2022/09/01 02:58:20;;;;;;;1999.90;999.90;;;10.90;99.90;;;;;;5035881;28;20556;-71
2022/09/01 03:00:52;;;;;;;1999.90;999.90;;;10.90;99.90;;;;;;5030967;28;20523;-70
2022/09/01 03:03:20;;;;;;;1999.90;999.90;;;11.00;99.90;;;;;;5046337;28;21159;-69
2022/09/01 03:05:49;;;;;;;1999.90;999.90;;;11.00;99.90;;;;;;5033183;28;20469;-69
2022/09/01 03:08:17;;;;;;;1999.90;999.90;;;11.00;99.90;;;;;;5034255;28;20517;-70
2022/09/01 03:10:46;;;;;;;1999.90;999.90;;;11.00;99.90;;;;;;5039390;28;20496;-71
2022/09/01 03:13:15;;;;;;;1999.90;999.90;;;11.00;99.90;;;;;;5042525;28;20459;-69
2022/09/01 03:15:43;;;;;;;1999.90;999.90;;;11.00;99.90;;;;;;5042068;28;20458;-71
2022/09/01 03:18:12;;;;;;;1999.90;999.90;;;11.10;99.90;;;;;;5037554;28;20463;-70
2022/09/01 03:20:42;;;;;;;1999.90;999.90;;;11.20;99.90;;;;;;5026774;28;20591;-70
2022/09/01 03:23:13;;;;;;;1999.90;999.90;;;11.10;99.90;;;;;;5037930;28;21009;-70
2022/09/01 03:25:42;;;;;;;1999.90;999.90;;;11.10;99.90;;;;;;5042035;28;20466;-70
2022/09/01 03:28:11;;;;;;;1999.90;999.90;;;11.10;99.90;;;;;;5035163;28;20466;-69
2022/09/01 03:30:40;;;;;;;1999.90;999.90;;;11.10;99.90;;;;;;5042310;28;20978;-69
2022/09/01 03:33:07;;;;;;;1999.90;999.90;;;11.00;99.90;;;;;;5035066;28;20467;-69
2022/09/01 03:35:34;;;;;;;1999.90;999.90;;;11.10;99.90;;;;;;5032206;28;20542;-69
2022/09/01 03:38:02;;;;;;;1999.90;999.90;;;11.10;99.90;;;;;;5037347;28;20459;-70
2022/09/01 03:40:31;;;;;;;1999.90;999.90;;;11.20;99.90;;;;;;5045052;28;20486;-67
2022/09/01 03:42:59;;;;;;;1999.90;999.90;;;11.20;99.90;;;;;;5037556;28;20475;-67
2022/09/01 03:45:26;;;;;;;1999.90;999.90;;;11.20;99.90;;;;;;5035826;28;20470;-69
2022/09/01 03:47:53;;;;;;;1999.90;999.90;;;11.10;99.90;;;;;;5032851;28;20537;-70
2022/09/01 03:50:23;;;;;;;1999.90;999.90;;;11.10;99.90;;;;;;5030810;28;20471;-68
2022/09/01 03:52:52;;;;;;;1999.90;999.90;;;11.00;99.90;;;;;;5035669;28;20897;-69
2022/09/01 03:55:23;;;;;;;1999.90;999.90;;;11.10;99.90;;;;;;5039399;28;20542;-69
2022/09/01 03:57:49;;;;;;;1999.90;999.90;;;11.10;99.90;;;;;;5038806;28;20529;-69
2022/09/01 04:00:21;;;;;;;1999.90;999.90;;;11.40;99.90;;;;;;5043390;28;20909;-70
2022/09/01 04:02:49;;;;;;;1999.90;999.90;;;10.90;99.90;;;;;;5030126;28;21034;-70
2022/09/01 04:05:18;;;;;;;1999.90;999.90;;;10.80;99.90;;;;;;5029996;28;20467;-69
2022/09/01 04:07:47;;;;;;;1999.90;999.90;;;10.80;99.90;;;;;;5037551;28;20471;-69
2022/09/01 04:10:14;;;;;;;1999.90;999.90;;;10.80;99.90;;;;;;5038104;28;20533;-69
2022/09/01 04:12:41;;;;;;;1999.90;999.90;;;10.90;99.90;;;;;;5039907;28;20466;-67
2022/09/01 04:15:09;;;;;;;1999.90;999.90;;;10.90;99.90;;;;;;5042395;28;20537;-70
2022/09/01 04:20:22;;;;;;;1999.90;999.90;;;10.80;99.90;;;;;;5037960;28;20477;-69
2022/09/01 04:22:51;;;;;;;1999.90;999.90;;;10.80;99.90;;;;;;5041333;28;20528;-69
2022/09/01 04:25:22;;;;;;;1999.90;999.90;;;10.80;99.90;;;;;;5037164;28;20495;-69
2022/09/01 04:27:49;;;;;;;1999.90;999.90;;;10.80;99.90;;;;;;5039617;28;20467;-69
2022/09/01 04:30:16;;;;;;;1999.90;999.90;;;10.90;99.90;;;;;;5038986;28;20521;-70
2022/09/01 04:32:45;;;;;;;1999.90;999.90;;;10.90;99.90;;;;;;5029412;28;20524;-70
2022/09/01 04:35:15;;;;;;;1999.90;999.90;;;10.90;99.90;;;;;;5040845;28;20459;-69
2022/09/01 04:37:42;;;;;;;1999.90;999.90;;;11.00;99.90;;;;;;5041238;28;22458;-67
2022/09/01 04:40:10;;;;;;;1999.90;999.90;;;11.30;99.90;;;;;;5037831;28;20561;-70
2022/09/01 04:42:36;;;;;;;1999.90;999.90;;;11.00;99.90;;;;;;5041075;28;20462;-70
2022/09/01 04:45:09;;;;;;;1999.90;999.90;;;11.00;99.90;;;;;;5036792;28;20517;-70
2022/09/01 04:47:40;;;;;;;1999.90;999.90;;;11.00;99.90;;;;;;5029705;28;20989;-68
2022/09/01 04:50:13;;;;;;;1999.90;999.90;;;10.90;99.90;;;;;;5036409;28;20532;-68
2022/09/01 04:52:40;;;;;;;1999.90;999.90;;;11.00;99.90;;;;;;5037770;28;20486;-69
2022/09/01 04:55:08;;;;;;;1999.90;999.90;;;11.00;99.90;;;;;;5041271;28;20470;-67
2022/09/01 04:57:36;;;;;;;1999.90;999.90;;;11.00;99.90;;;;;;5041243;28;20528;-69
2022/09/01 05:00:03;;;;;;;1999.90;999.90;;;10.90;99.90;;;;;;5033976;28;20475;-70
2022/09/01 05:02:30;;;;;;;1999.90;999.90;;;10.90;99.90;;;;;;5029849;28;20512;-68
2022/09/01 05:04:57;;;;;;;1999.90;999.90;;;10.90;99.90;;;;;;5035049;28;20493;-70
2022/09/01 05:07:25;;;;;;;1999.90;999.90;;;10.90;99.90;;;;;;5037879;28;20458;-69
2022/09/01 05:09:53;;;;;;;1999.90;999.90;;;10.90;99.90;;;;;;5036846;28;20467;-69
2022/09/01 05:12:21;;;;;;;1999.90;999.90;;;10.90;99.90;;;;;;5043683;28;20490;-70
2022/09/01 05:14:48;;;;;;;1999.90;999.90;;;10.90;99.90;;;;;;5030194;28;20465;-69
2022/09/01 05:17:16;;;;;;;1999.90;999.90;;;10.90;99.90;;;;;;5028454;28;20529;-70
2022/09/01 05:19:46;;;;;;;1999.90;999.90;;;10.90;99.90;;;;;;5028181;28;20473;-69
2022/09/01 05:22:14;;;;;;;1999.90;999.90;;;10.90;99.90;;;;;;5030924;28;20502;-68
2022/09/01 05:24:42;;;;;;;1999.90;999.90;;;11.00;99.90;;;;;;5027892;28;20520;-68
2022/09/01 05:27:11;;;;;;;1999.90;999.90;;;11.00;99.90;;;;;;5033848;28;20515;-67
2022/09/01 05:29:38;;;;;;;1999.90;999.90;;;11.00;99.90;;;;;;5033449;28;20969;-68
2022/09/01 05:32:08;;;;;;;1999.90;999.90;;;11.00;99.90;;;;;;5035817;28;20486;-66
2022/09/01 05:34:37;;;;;;;1999.90;999.90;;;11.00;99.90;;;;;;5033383;28;20525;-69
2022/09/01 05:37:05;;;;;;;1999.90;999.90;;;10.90;99.90;;;;;;5028439;28;20460;-69
2022/09/01 05:39:32;;;;;;;1999.90;999.90;;;11.00;99.90;;;;;;5033777;28;20462;-69
2022/09/01 05:42:00;;;;;;;1999.90;999.90;;;11.10;99.90;;;;;;5041181;28;20485;-67
2022/09/01 05:44:27;;;;;;;1999.90;999.90;;;11.10;99.90;;;;;;5030504;28;20552;-68
2022/09/01 05:46:54;;;;;;;1999.90;999.90;;;11.30;99.90;;;;;;5032049;28;20524;-68
2022/09/01 05:49:21;;;;;;;1999.90;999.90;;;11.30;99.90;;;;;;5028371;28;20482;-69
2022/09/01 05:51:50;;;;;;;1999.90;999.90;;;11.40;99.90;;;;;;5032532;28;20509;-67
2022/09/01 05:54:20;;;;;;;1999.90;999.90;;;11.50;99.90;;;;;;5032038;28;20459;-67
2022/09/01 05:56:47;;;;;;;1999.90;999.90;;;11.80;99.90;;;;;;5033946;28;20892;-67
2022/09/01 05:59:16;;;;;;;1999.90;999.90;;;12.00;99.90;;;;;;5034926;28;20464;-67
2022/09/01 06:01:42;;;;;;;1999.90;999.90;;;12.30;99.90;;;;;;5044748;28;20477;-68
2022/09/01 06:04:09;;;;;;;1999.90;999.90;;;12.60;99.90;;;;;;5027318;28;20489;-67
2022/09/01 06:06:42;;;;;;;1999.90;999.90;;;12.80;99.90;;;;;;5029492;28;20463;-65
2022/09/01 06:09:10;;;;;;;1999.90;999.90;;;12.90;99.90;;;;;;5030135;28;20951;-65
2022/09/01 06:11:37;;;;;;;1999.90;999.90;;;13.00;99.90;;;;;;5026366;28;20491;-69
2022/09/01 06:14:04;;;;;;;1999.90;999.90;;;13.30;99.90;;;;;;5023158;28;20525;-67
2022/09/01 06:16:33;;;;;;;1999.90;999.90;;;13.50;99.90;;;;;;5029170;28;20529;-67
2022/09/01 06:19:00;;;;;;;1999.90;999.90;;;13.80;99.90;;;;;;5027723;28;20463;-68
2022/09/01 06:21:27;;;;;;;1999.90;999.90;;;14.00;99.90;;;;;;5028578;28;20516;-66
2022/09/01 06:23:56;;;;;;;1999.90;999.90;;;14.20;99.90;;;;;;5028529;28;20467;-67
2022/09/01 06:26:27;;;;;;;1999.90;999.90;;;14.50;99.90;;;;;;5028878;28;20459;-66
2022/09/01 06:28:54;;;;;;;1999.90;999.90;;;14.70;99.90;;;;;;5027498;28;20550;-68
2022/09/01 06:31:22;;;;;;;1999.90;999.90;;;14.90;99.90;;;;;;5028959;28;20479;-69
2022/09/01 06:33:52;;;;;;;1999.90;999.90;;;15.20;99.90;;;;;;5028082;28;20459;-69
2022/09/01 06:36:20;;;;;;;1999.90;999.90;;;15.40;99.90;;;;;;5030731;28;20537;-69
2022/09/01 06:38:50;;;;;;;1999.90;999.90;;;15.50;99.90;;;;;;5028936;28;20463;-70
2022/09/01 06:41:18;;;;;;;1999.90;999.90;;;15.70;99.90;;;;;;5028889;28;20479;-70
2022/09/01 06:43:45;;;;;;;1999.90;999.90;;;15.90;99.90;;;;;;5035923;28;20471;-67
2022/09/01 06:46:12;;;;;;;1999.90;999.90;;;16.10;99.90;;;;;;5032171;28;20947;-68
2022/09/01 06:48:45;;;;;;;1999.90;999.90;;;16.30;99.90;;;;;;5032045;28;20515;-67
2022/09/01 06:51:15;;;;;;;1999.90;999.90;;;16.50;99.90;;;;;;5034743;28;21058;-66
2022/09/01 06:53:42;;;;;;;1999.90;999.90;;;16.80;99.90;;;;;;5026968;28;20897;-66
2022/09/01 06:56:12;;;;;;;1999.90;999.90;;;17.00;99.90;;;;;;5039200;28;20890;-65
2022/09/01 06:58:40;;;;;;;1999.90;999.90;;;17.00;99.90;;;;;;5032383;28;20459;-68
2022/09/01 07:01:14;;;;;;;1999.90;999.90;;;17.10;99.90;;;;;;5029073;28;20493;-67
2022/09/01 07:03:41;;;;;;;1999.90;999.90;;;17.10;99.90;;;;;;5037206;28;20458;-67
2022/09/01 07:06:09;;;;;;;1999.90;999.90;;;17.30;99.90;;;;;;5032245;28;20476;-67
2022/09/01 07:08:38;;;;;;;1999.90;999.90;;;17.30;99.90;;;;;;5032130;28;20574;-68
2022/09/01 07:11:06;;;;;;;1999.90;999.90;;;17.40;99.90;;;;;;5031559;28;20494;-65
2022/09/01 07:13:34;;;;;;;1999.90;999.90;;;17.60;99.90;;;;;;5032830;28;20549;-66
2022/09/01 07:16:03;;;;;;;1999.90;999.90;;;17.80;99.90;;;;;;5032352;28;20470;-68
2022/09/01 07:18:30;;;;;;;1999.90;999.90;;;17.80;99.90;;;;;;5026840;28;20459;-68
2022/09/01 07:20:57;;;;;;;1999.90;999.90;;;17.70;99.90;;;;;;5030805;28;20487;-68
2022/09/01 07:23:24;;;;;;;1999.90;999.90;;;17.90;99.90;;;;;;5031670;28;20458;-66
2022/09/01 07:25:56;;;;;;;1999.90;999.90;;;18.10;99.90;;;;;;5027540;28;20485;-66
2022/09/01 07:28:26;;;;;;;1999.90;999.90;;;18.30;99.90;;;;;;5030836;28;20459;-66
2022/09/01 07:30:53;;;;;;;1999.90;999.90;;;18.40;99.90;;;;;;5031245;28;20515;-66
2022/09/01 07:33:23;;;;;;;1999.90;999.90;;;18.30;99.90;;;;;;5036552;28;20450;-66
2022/09/01 07:35:52;;;;;;;1999.90;999.90;;;18.60;99.90;;;;;;5013400;28;20488;-67
2022/09/01 07:38:19;;;;;;;1999.90;999.90;;;18.70;99.90;;;;;;5029079;28;21042;-68
2022/09/01 07:40:47;;;;;;;1999.90;999.90;;;18.80;99.90;;;;;;5029061;28;20487;-67
2022/09/01 07:43:21;;;;;;;1999.90;999.90;;;19.10;99.90;;;;;;5030227;28;20474;-67
2022/09/01 07:45:49;;;;;;;1999.90;999.90;;;19.20;99.90;;;;;;5031104;28;20958;-67
2022/09/01 07:48:19;;;;;;;1999.90;999.90;;;19.20;99.90;;;;;;5028051;28;21046;-66
2022/09/01 07:50:47;;;;;;;1999.90;999.90;;;19.30;99.90;;;;;;5031310;28;20565;-67
2022/09/01 07:53:15;;;;;;;1999.90;999.90;;;19.20;99.90;;;;;;5028457;28;20513;-67
2022/09/01 07:55:42;;;;;;;1999.90;999.90;;;19.10;99.90;;;;;;5032248;28;20463;-67
2022/09/01 07:58:09;;;;;;;1999.90;999.90;;;19.10;99.90;;;;;;5034513;28;20486;-67
2022/09/01 08:00:38;;;;;;;1999.90;999.90;;;19.10;99.90;;;;;;5040910;28;20541;-67
2022/09/01 08:03:05;;;;;;;1999.90;999.90;;;19.30;99.90;;;;;;5051817;28;20478;-68
2022/09/01 08:05:33;;;;;;;1999.90;999.90;;;19.00;99.90;;;;;;5055013;28;20818;-68
2022/09/01 08:08:00;;;;;;;1999.90;999.90;;;19.20;99.90;;;;;;5036122;28;20463;-68
2022/09/01 08:10:27;;;;;;;1999.90;999.90;;;19.20;99.90;;;;;;5035680;28;20482;-67
2022/09/01 08:12:55;;;;;;;1999.90;999.90;;;19.40;99.90;;;;;;5035212;28;20486;-66
2022/09/01 08:15:22;;;;;;;1999.90;999.90;;;19.40;99.90;;;;;;5033831;28;20459;-66
2022/09/01 08:17:50;;;;;;;1999.90;999.90;;;19.30;99.90;;;;;;5033488;28;20931;-69
2022/09/01 08:20:16;;;;;;;1999.90;999.90;;;19.30;99.90;;;;;;5032248;28;20472;-68
2022/09/01 08:22:43;;;;;;;1999.90;999.90;;;19.40;99.90;;;;;;5030222;28;20487;-67
2022/09/01 08:25:10;;;;;;;1999.90;999.90;;;19.50;99.90;;;;;;5021121;28;20518;-68
2022/09/01 08:27:38;;;;;;;1999.90;999.90;;;19.70;99.90;;;;;;5031907;28;20513;-65
2022/09/01 08:30:07;;;;;;;1999.90;999.90;;;19.90;99.90;;;;;;5026419;28;20467;-65
2022/09/01 08:32:35;;;;;;;1999.90;999.90;;;19.80;99.90;;;;;;5027912;28;21017;-67
2022/09/01 08:35:04;;;;;;;1999.90;999.90;;;19.80;99.90;;;;;;5031314;28;20510;-66
2022/09/01 08:37:32;;;;;;;1999.90;999.90;;;19.80;99.90;;;;;;5033166;28;20451;-68
2022/09/01 08:39:59;;;;;;;1999.90;999.90;;;19.80;99.90;;;;;;5034012;28;20450;-66
2022/09/01 08:42:44;;;;;;;1999.90;999.90;;;19.90;99.90;;;;;;5035946;28;20603;-67
2022/09/01 08:45:20;;;;;;;1999.90;999.90;;;19.90;99.90;;;;;;5044068;28;20935;-68
2022/09/01 08:47:47;;;;;;;1999.90;999.90;;;20.00;99.90;;;;;;5032699;28;20463;-67
2022/09/01 08:50:18;;;;;;;1999.90;999.90;;;20.00;99.90;;;;;;5033063;28;20550;-68
2022/09/01 08:52:51;;;;;;;1999.90;999.90;;;20.10;99.90;;;;;;5033455;28;20462;-68
2022/09/01 08:55:24;;;;;;;1999.90;999.90;;;20.20;99.90;;;;;;5035266;28;20458;-70
2022/09/01 08:57:54;;;;;;;1999.90;999.90;;;20.60;99.90;;;;;;5039363;28;20465;-70
2022/09/01 09:00:23;;;;;;;1999.90;999.90;;;20.70;99.90;;;;;;5035016;28;20533;-69
2022/09/01 09:03:05;;;;;;;1999.90;999.90;;;20.80;99.90;;;;;;5033263;28;20494;-70
2022/09/01 09:05:42;;;;;;;1999.90;999.90;;;20.90;99.90;;;;;;5032520;28;20546;-69
2022/09/01 09:08:32;;;;;;;1999.90;999.90;;;21.00;99.90;;;;;;5035607;28;20947;-70
2022/09/01 09:11:01;;;;;;;1999.90;999.90;;;21.20;99.90;;;;;;5042330;28;20467;-70
2022/09/01 09:13:37;;;;;;;1999.90;999.90;;;21.20;99.30;;;;;;5032810;28;21007;-68
2022/09/01 09:16:10;;;;;;;1999.90;999.90;;;20.90;99.60;;;;;;5034577;28;20443;-68
2022/09/01 09:18:42;;;;;;;1999.90;999.90;;;21.00;99.90;;;;;;5033824;28;20482;-70
2022/09/01 09:21:17;;;;;;;1999.90;999.90;;;21.20;99.80;;;;;;5034544;28;20463;-67
2022/09/01 09:23:48;;;;;;;1999.90;999.90;;;21.30;98.80;;;;;;5033688;28;20443;-68
2022/09/01 09:26:15;;;;;;;1999.90;999.90;;;21.30;99.30;;;;;;5035470;28;20439;-70
2022/09/01 09:28:42;;;;;;;1999.90;999.90;;;21.40;99.30;;;;;;5031795;28;20554;-70
2022/09/01 09:31:29;;;;;;;1999.90;999.90;;;21.60;99.00;;;;;;5034537;28;20509;-70
2022/09/01 09:33:56;;;;;;;1999.90;999.90;;;21.70;98.40;;;;;;5034871;28;20933;-69
2022/09/01 09:36:31;;;;;;;1999.90;999.90;;;21.80;98.50;;;;;;5039961;28;20467;-70
2022/09/01 09:39:10;;;;;;;1999.90;999.90;;;21.70;98.40;;;;;;5043191;28;20459;-69
2022/09/01 09:41:38;;;;;;;1999.90;999.90;;;21.60;98.20;;;;;;5025960;28;20482;-70
2022/09/01 09:44:19;;;;;;;1999.90;999.90;;;21.80;97.70;;;;;;5032048;28;20463;-70
2022/09/01 09:46:47;;;;;;;1999.90;999.90;;;21.60;97.60;;;;;;5028283;28;20577;-70
2022/09/01 09:49:19;;;;;;;1999.90;999.90;;;21.40;97.90;;;;;;5030730;28;20516;-69
2022/09/01 09:51:49;;;;;;;1999.90;999.90;;;21.60;98.10;;;;;;5028875;28;20483;-66
2022/09/01 09:54:21;;;;;;;1999.90;999.90;;;21.20;97.80;;;;;;5034031;28;20459;-69
2022/09/01 09:56:49;;;;;;;1999.90;999.90;;;21.30;97.80;;;;;;5033558;28;21014;-70
2022/09/01 09:59:23;;;;;;;1999.90;999.90;;;21.40;97.60;;;;;;5029824;28;20459;-69
2022/09/01 10:01:50;;;;;;;1999.90;999.90;;;21.30;97.10;;;;;;5032925;28;20867;-70
2022/09/01 10:04:34;;;;;;;1999.90;999.90;;;21.10;96.70;;;;;;5031889;28;20837;-70
2022/09/01 10:07:25;;;;;;;1999.90;999.90;;;21.10;97.40;;;;;;5033912;28;20479;-68
2022/09/01 10:09:54;;;;;;;1999.90;999.90;;;21.10;97.50;;;;;;5030574;28;20530;-70
2022/09/01 10:12:22;;;;;;;1999.90;999.90;;;21.10;97.70;;;;;;5073337;22;20497;-70
2022/09/01 10:14:53;;;;;;;1999.90;999.90;;;21.20;96.70;;;;;;5067828;28;20531;-70
2022/09/01 10:17:24;;;;;;;1999.90;999.90;;;21.50;97.00;;;;;;5076339;28;20461;-71
2022/09/01 10:19:55;;;;;;;1999.90;999.90;;;21.70;96.30;;;;;;5068897;28;20460;-69
2022/09/01 10:22:25;;;;;;;1999.90;999.90;;;21.80;96.00;;;;;;5070926;28;21007;-69
2022/09/01 10:24:51;;;;;;;1999.90;999.90;;;22.10;95.40;;;;;;5071947;28;20499;-69
2022/09/01 10:27:23;;;;;;;1999.90;999.90;;;22.20;94.70;;;;;;5071320;28;20522;-72
2022/09/01 10:29:56;;;;;;;1999.90;999.90;;;22.20;94.60;;;;;;5070989;28;20491;-69
2022/09/01 10:32:27;;;;;;;1999.90;999.90;;;22.40;94.00;;;;;;5071614;28;20846;-70
2022/09/01 10:34:54;;;;;;;1999.90;999.90;;;22.30;93.40;;;;;;5071619;28;20441;-69
2022/09/01 10:37:23;;;;;;;1999.90;999.90;;;22.10;92.90;;;;;;5071574;28;20953;-69
2022/09/01 10:40:10;;;;;;;1999.90;999.90;;;22.10;92.00;;;;;;5071857;28;20445;-69
2022/09/01 10:42:37;;;;;;;1999.90;999.90;;;22.60;92.70;;;;;;5070278;28;20485;-70
2022/09/01 10:45:05;;;;;;;1999.90;999.90;;;22.80;92.40;;;;;;5071595;28;20788;-68
2022/09/01 10:47:36;;;;;;;1999.90;999.90;;;22.70;90.30;;;;;;5071817;28;20508;-71
2022/09/01 10:50:22;;;;;;;1999.90;999.90;;;23.00;90.80;;;;;;5071573;28;20445;-70
2022/09/01 10:53:34;;;;;;;1999.90;999.90;;;23.50;90.50;;;;;;5069392;28;20482;-69
2022/09/01 10:56:05;;;;;;;1999.90;999.90;;;23.80;86.10;;;;;;5054424;28;20458;-70
2022/09/01 10:58:47;;;;;;;1999.90;999.90;;;23.60;85.20;;;;;;5056942;28;21023;-70
2022/09/01 11:01:14;;;;;;;1999.90;999.90;;;23.40;86.10;;;;;;5062071;28;20461;-70
2022/09/01 11:03:59;;;;;;;1999.90;999.90;;;23.20;84.50;;;;;;5062570;28;20535;-70
2022/09/01 11:06:56;;;;;;;1999.90;999.90;;;22.90;83.90;;;;;;5067933;28;21015;-67
2022/09/01 11:09:28;;;;;;;1999.90;999.90;;;22.70;83.30;;;;;;5061235;28;21009;-69
2022/09/01 11:12:15;;;;;;;1999.90;999.90;;;22.70;84.30;;;;;;5060583;28;21401;-71
2022/09/01 11:14:50;;;;;;;1999.90;999.90;;;23.00;84.00;;;;;;5067513;28;20453;-71
2022/09/01 11:17:20;;;;;;;1999.90;999.90;;;23.10;81.40;;;;;;5062009;28;20457;-71
2022/09/01 11:19:55;;;;;;;1999.90;999.90;;;23.10;81.50;;;;;;5054073;28;20837;-70
2022/09/01 11:22:26;;;;;;;1999.90;999.90;;;23.50;82.80;;;;;;5063179;28;20492;-71
2022/09/01 11:25:35;;;;;;;1999.90;999.90;;;23.60;79.30;;;;;;5062575;28;20510;-72
2022/09/01 11:28:37;;;;;;;1999.90;999.90;;;23.80;80.20;;;;;;5042662;28;20445;-71
2022/09/01 11:31:35;;;;;;;1999.90;999.90;;;24.10;78.60;;;;;;5070278;28;20530;-69
2022/09/01 11:34:15;;;;;;;1999.90;999.90;;;23.80;77.50;;;;;;5056942;28;20461;-72
2022/09/01 11:36:51;;;;;;;1999.90;999.90;;;24.10;76.60;;;;;;5069150;28;20495;-71
2022/09/01 11:39:30;;;;;;;1999.90;999.90;;;23.80;78.20;;;;;;5074882;28;20437;-72
2022/09/01 11:42:01;;;;;;;1999.90;999.90;;;24.10;77.70;;;;;;5078136;28;20476;-71
2022/09/01 11:44:36;;;;;;;1999.90;999.90;;;24.30;77.20;;;;;;5065431;28;20465;-71
2022/09/01 11:47:06;;;;;;;1999.90;999.90;;;23.90;78.90;;;;;;5061567;28;20504;-72
2022/09/01 11:49:35;;;;;;;1999.90;999.90;;;23.60;80.20;;;;;;5063609;28;20522;-70
2022/09/01 11:52:03;;;;;;;1999.90;999.90;;;24.00;79.70;;;;;;5056936;28;20830;-72
2022/09/01 11:54:38;;;;;;;1999.90;999.90;;;24.20;77.60;;;;;;5057916;28;20523;-69
2022/09/01 11:57:18;;;;;;;1999.90;999.90;;;24.20;75.20;;;;;;5062685;28;20832;-71
2022/09/01 11:59:46;;;;;;;1999.90;999.90;;;23.70;76.90;;;;;;5067196;28;20492;-69
2022/09/01 12:02:18;;;;;;;1999.90;999.90;;;23.20;77.00;;;;;;5057019;28;21251;-69
2022/09/01 12:04:45;;;;;;;1999.90;999.90;;;23.00;76.60;;;;;;5056578;28;20490;-69
2022/09/01 12:07:23;;;;;;;1999.90;999.90;;;23.00;78.20;;;;;;5066744;28;20458;-71
2022/09/01 12:09:51;;;;;;;1999.90;999.90;;;23.10;77.50;;;;;;5074327;28;20441;-71
2022/09/01 12:12:31;;;;;;;1999.90;999.90;;;23.30;77.20;;;;;;5062012;28;21096;-72
2022/09/01 12:15:01;;;;;;;1999.90;999.90;;;23.30;79.60;;;;;;5053858;28;20430;-69
2022/09/01 12:17:28;;;;;;;1999.90;999.90;;;23.30;77.10;;;;;;5067219;28;20535;-69
2022/09/01 12:19:54;;;;;;;1999.90;999.90;;;23.40;77.10;;;;;;5073574;28;20957;-70